createdAt,value
2023-04-17T00:00:14.086Z,18.06
2023-04-17T00:02:41.247Z,18.02
2023-04-17T00:05:08.505Z,18.04
2023-04-17T00:07:38.738Z,18.03
2023-04-17T00:10:09.437Z,18.02
2023-04-17T00:12:36.073Z,18.00
2023-04-17T00:15:03.376Z,18.01
2023-04-17T00:17:30.435Z,17.95
2023-04-17T00:19:56.860Z,17.98
2023-04-17T00:22:23.310Z,17.97
2023-04-17T00:24:49.755Z,17.99
2023-04-17T00:27:16.228Z,17.99
2023-04-17T00:29:42.644Z,17.99
2023-04-17T00:32:09.216Z,17.99
2023-04-17T00:34:35.706Z,17.98
2023-04-17T00:37:02.096Z,17.92
2023-04-17T00:39:28.543Z,17.96
2023-04-17T00:41:54.957Z,17.85
2023-04-17T00:44:21.480Z,17.89
2023-04-17T00:46:47.938Z,17.85
2023-04-17T00:49:14.544Z,17.88
2023-04-17T00:51:41.081Z,17.87
2023-04-17T00:54:08.199Z,17.87
2023-04-17T00:56:34.809Z,17.86
2023-04-17T00:59:01.660Z,17.86
2023-04-17T01:01:28.184Z,17.87
2023-04-17T01:03:55.018Z,17.89
2023-04-17T01:06:21.710Z,17.90
2023-04-17T01:08:48.225Z,17.87
2023-04-17T01:11:14.677Z,17.79
2023-04-17T01:13:48.399Z,17.82
2023-04-17T01:16:15.019Z,17.81
2023-04-17T01:18:41.591Z,17.78
2023-04-17T01:21:08.033Z,17.83
2023-04-17T01:23:51.724Z,17.88
2023-04-17T01:26:27.907Z,17.86
2023-04-17T01:28:58.297Z,17.90
2023-04-17T01:31:26.461Z,17.90
2023-04-17T01:33:53.152Z,17.90
2023-04-17T01:36:19.820Z,17.89
2023-04-17T01:38:46.312Z,17.88
2023-04-17T01:41:12.852Z,17.90
2023-04-17T01:43:41.191Z,17.94
2023-04-17T01:46:08.048Z,17.94
2023-04-17T01:48:35.040Z,17.94
2023-04-17T01:51:01.771Z,17.95
2023-04-17T01:53:30.657Z,17.97
2023-04-17T01:55:57.215Z,17.96
2023-04-17T01:58:23.870Z,17.95
2023-04-17T02:00:50.452Z,17.94
2023-04-17T02:03:17.015Z,17.92
2023-04-17T02:05:47.355Z,17.91
2023-04-17T02:08:14.516Z,17.92
2023-04-17T02:10:41.891Z,17.93
2023-04-17T02:13:09.193Z,17.93
2023-04-17T02:15:37.203Z,17.87
2023-04-17T02:18:06.130Z,17.83
2023-04-17T02:20:33.557Z,17.83
2023-04-17T02:23:00.842Z,17.86
2023-04-17T02:25:28.269Z,17.83
2023-04-17T02:27:56.215Z,17.83
2023-04-17T02:30:26.369Z,17.76
2023-04-17T02:32:54.200Z,17.79
2023-04-17T02:35:21.784Z,17.84
2023-04-17T02:37:48.281Z,17.83
2023-04-17T02:40:15.404Z,17.84
2023-04-17T02:42:42.249Z,17.83
2023-04-17T02:45:10.074Z,17.83
2023-04-17T02:47:36.982Z,17.78
2023-04-17T02:50:03.786Z,17.78
2023-04-17T02:52:31.758Z,17.76
2023-04-17T02:54:58.499Z,17.81
2023-04-17T02:57:25.418Z,17.79
2023-04-17T02:59:52.251Z,17.80
2023-04-17T03:02:22.061Z,17.80
2023-04-17T03:04:50.621Z,17.79
2023-04-17T03:07:23.513Z,17.78
2023-04-17T03:09:53.566Z,17.75
2023-04-17T03:12:20.394Z,17.78
2023-04-17T03:14:46.847Z,17.80
2023-04-17T03:17:15.487Z,17.76
2023-04-17T03:19:42.114Z,17.76
2023-04-17T03:22:08.700Z,17.75
2023-04-17T03:24:35.305Z,17.74
2023-04-17T03:27:02.338Z,17.73
2023-04-17T03:29:28.911Z,17.72
2023-04-17T03:31:55.536Z,17.70
2023-04-17T03:34:22.404Z,17.75
2023-04-17T03:36:49.258Z,17.74
2023-04-17T03:39:15.946Z,17.69
2023-04-17T03:41:42.441Z,17.72
2023-04-17T03:44:09.969Z,17.74
2023-04-17T03:46:37.751Z,17.75
2023-04-17T03:49:04.531Z,17.76
2023-04-17T03:51:31.865Z,17.76
2023-04-17T03:53:58.404Z,17.68
2023-04-17T03:56:25.643Z,17.70
2023-04-17T03:58:52.044Z,17.74
2023-04-17T04:01:18.501Z,17.74
2023-04-17T04:03:45.061Z,17.73
2023-04-17T04:06:11.646Z,17.71
2023-04-17T04:08:38.192Z,17.72
2023-04-17T04:11:04.633Z,17.74
2023-04-17T04:13:31.344Z,17.65
2023-04-17T04:15:57.813Z,17.69
2023-04-17T04:18:24.316Z,17.71
2023-04-17T04:20:50.731Z,17.65
2023-04-17T04:23:17.217Z,17.67
2023-04-17T04:25:43.674Z,17.68
2023-04-17T04:28:10.679Z,17.69
2023-04-17T04:30:38.663Z,17.70
2023-04-17T04:33:06.189Z,17.72
2023-04-17T04:35:34.187Z,17.77
2023-04-17T04:38:02.058Z,17.79
2023-04-17T04:40:30.664Z,17.80
2023-04-17T04:42:57.300Z,17.78
2023-04-17T04:45:23.937Z,17.78
2023-04-17T04:47:50.451Z,17.73
2023-04-17T04:50:17.650Z,17.71
2023-04-17T04:52:44.283Z,17.72
2023-04-17T04:55:10.774Z,17.77
2023-04-17T04:57:38.376Z,17.75
2023-04-17T05:00:09.184Z,17.72
2023-04-17T05:02:35.893Z,17.71
2023-04-17T05:05:04.725Z,17.71
2023-04-17T05:07:31.350Z,17.64
2023-04-17T05:09:57.777Z,17.65
2023-04-17T05:12:24.331Z,17.63
2023-04-17T05:14:50.856Z,17.61
2023-04-17T05:17:17.302Z,17.61
2023-04-17T05:19:43.763Z,17.64
2023-04-17T05:22:10.352Z,17.66
2023-04-17T05:24:36.888Z,17.67
2023-04-17T05:27:04.076Z,17.72
2023-04-17T05:29:30.591Z,17.74
2023-04-17T05:31:57.079Z,17.72
2023-04-17T05:34:23.582Z,17.72
2023-04-17T05:36:50.060Z,17.74
2023-04-17T05:39:16.457Z,17.79
2023-04-17T05:41:42.862Z,17.81
2023-04-17T05:44:09.333Z,17.79
2023-04-17T05:46:35.764Z,17.81
2023-04-17T05:49:02.265Z,17.81
2023-04-17T05:51:28.816Z,17.75
2023-04-17T05:53:55.389Z,17.72
2023-04-17T05:56:21.820Z,17.72
2023-04-17T05:58:48.286Z,17.72
2023-04-17T06:01:17.696Z,17.69
2023-04-17T06:03:44.377Z,17.71
2023-04-17T06:06:11.054Z,17.70
2023-04-17T06:08:37.481Z,17.69
2023-04-17T06:11:03.946Z,17.68
2023-04-17T06:13:30.588Z,17.63
2023-04-17T06:15:57.068Z,17.58
2023-04-17T06:18:23.646Z,17.58
2023-04-17T06:20:50.664Z,17.57
2023-04-17T06:23:17.085Z,17.55
2023-04-17T06:25:44.692Z,17.59
2023-04-17T06:28:11.172Z,17.55
2023-04-17T06:30:37.954Z,17.57
2023-04-17T06:33:04.517Z,17.51
2023-04-17T06:35:31.242Z,17.54
2023-04-17T06:37:57.678Z,17.51
2023-04-17T06:40:24.114Z,17.50
2023-04-17T06:42:50.537Z,17.52
2023-04-17T06:45:17.024Z,17.53
2023-04-17T06:47:46.473Z,17.51
2023-04-17T06:50:12.985Z,17.46
2023-04-17T06:52:39.461Z,17.51
2023-04-17T06:55:06.251Z,17.52
2023-04-17T06:57:34.086Z,17.52
2023-04-17T07:00:00.741Z,17.56
2023-04-17T07:02:27.644Z,17.56
2023-04-17T07:04:55.186Z,17.55
2023-04-17T07:07:21.686Z,17.56
2023-04-17T07:09:48.272Z,17.51
2023-04-17T07:12:15.322Z,17.52
2023-04-17T07:14:41.746Z,17.53
2023-04-17T07:17:08.168Z,17.52
2023-04-17T07:19:34.880Z,17.53
2023-04-17T07:22:01.472Z,17.57
2023-04-17T07:24:27.973Z,17.52
2023-04-17T07:26:54.557Z,17.50
2023-04-17T07:29:20.985Z,17.52
2023-04-17T07:31:47.715Z,17.48
2023-04-17T07:34:14.196Z,17.40
2023-04-17T07:36:40.633Z,17.43
2023-04-17T07:39:08.090Z,17.48
2023-04-17T07:41:34.591Z,17.47
2023-04-17T07:44:03.389Z,17.51
2023-04-17T07:46:29.896Z,17.54
2023-04-17T07:48:56.395Z,17.54
2023-04-17T07:51:22.924Z,17.50
2023-04-17T07:53:49.418Z,17.48
2023-04-17T07:56:16.454Z,17.46
2023-04-17T07:58:44.991Z,17.46
2023-04-17T08:01:11.548Z,17.51
2023-04-17T08:03:41.875Z,17.50
2023-04-17T08:06:08.539Z,17.46
2023-04-17T08:08:34.970Z,17.45
2023-04-17T08:11:01.374Z,17.48
2023-04-17T08:13:31.012Z,17.45
2023-04-17T08:15:57.454Z,17.43
2023-04-17T08:18:23.882Z,17.48
2023-04-17T08:20:50.376Z,17.50
2023-04-17T08:23:16.891Z,17.50
2023-04-17T08:25:44.748Z,17.51
2023-04-17T08:28:11.190Z,17.52
2023-04-17T08:30:37.701Z,17.54
2023-04-17T08:33:04.235Z,17.55
2023-04-17T08:35:30.863Z,17.53
2023-04-17T08:37:59.147Z,17.54
2023-04-17T08:40:26.488Z,17.52
2023-04-17T08:42:54.036Z,17.53
2023-04-17T08:45:22.877Z,17.51
2023-04-17T08:47:49.453Z,17.51
2023-04-17T08:50:18.459Z,17.47
2023-04-17T08:52:50.372Z,17.50
2023-04-17T08:55:19.997Z,17.51
2023-04-17T08:57:57.927Z,17.53
2023-04-17T09:00:29.180Z,17.56
2023-04-17T09:02:57.208Z,17.51
2023-04-17T09:05:26.022Z,17.50
2023-04-17T09:08:16.815Z,17.52
2023-04-17T09:10:44.071Z,17.52
2023-04-17T09:13:14.727Z,17.46
2023-04-17T09:15:42.363Z,17.48
2023-04-17T09:18:24.155Z,17.52
2023-04-17T09:20:51.456Z,17.51
2023-04-17T09:23:18.411Z,17.53
2023-04-17T09:25:44.935Z,17.51
2023-04-17T09:28:14.508Z,17.53
2023-04-17T09:30:42.053Z,17.54
2023-04-17T09:33:10.604Z,17.53
2023-04-17T09:35:40.058Z,17.45
2023-04-17T09:38:07.275Z,17.45
2023-04-17T09:40:39.674Z,17.45
2023-04-17T09:43:10.659Z,17.45
2023-04-17T09:45:41.692Z,17.52
2023-04-17T09:48:10.840Z,17.57
2023-04-17T09:50:39.147Z,17.59
2023-04-17T09:53:07.128Z,17.58
2023-04-17T09:55:36.616Z,17.59
2023-04-17T09:58:05.300Z,17.59
2023-04-17T10:00:31.948Z,17.58
2023-04-17T10:02:59.714Z,17.59
2023-04-17T10:05:31.553Z,17.60
2023-04-17T10:07:58.257Z,17.61
2023-04-17T10:10:26.774Z,17.58
2023-04-17T10:12:58.552Z,17.58
2023-04-17T10:15:26.207Z,17.58
2023-04-17T10:17:53.826Z,17.58
2023-04-17T10:20:23.516Z,17.60
2023-04-17T10:22:56.031Z,17.62
2023-04-17T10:25:23.836Z,17.67
2023-04-17T10:28:00.456Z,17.66
2023-04-17T10:30:50.037Z,17.71
2023-04-17T10:33:20.143Z,17.73
2023-04-17T10:35:46.817Z,17.74
2023-04-17T10:38:13.304Z,17.76
2023-04-17T10:40:39.882Z,17.78
2023-04-17T10:43:23.197Z,17.77
2023-04-17T10:46:08.625Z,17.78
2023-04-17T10:48:52.588Z,17.78
2023-04-17T10:51:22.559Z,17.79
2023-04-17T10:53:51.298Z,17.80
2023-04-17T10:56:19.571Z,17.83
2023-04-17T10:58:59.434Z,17.81
2023-04-17T11:01:30.802Z,17.84
2023-04-17T11:03:59.761Z,17.84
2023-04-17T11:06:31.308Z,17.82
2023-04-17T11:08:58.982Z,17.84
2023-04-17T11:11:35.142Z,17.86
2023-04-17T11:14:14.640Z,17.87
2023-04-17T11:16:43.115Z,17.87
2023-04-17T11:19:11.320Z,17.89
2023-04-17T11:21:45.357Z,17.89
2023-04-17T11:24:12.146Z,17.87
2023-04-17T11:26:48.724Z,17.88
2023-04-17T11:29:19.773Z,17.90
2023-04-17T11:31:47.054Z,17.91
2023-04-17T11:34:14.396Z,17.93
2023-04-17T11:36:41.058Z,17.92
2023-04-17T11:39:08.694Z,17.91
2023-04-17T11:41:39.492Z,17.92
2023-04-17T11:44:09.591Z,17.91
2023-04-17T11:46:36.922Z,17.89
2023-04-17T11:49:07.379Z,17.90
2023-04-17T11:51:34.210Z,17.89
2023-04-17T11:54:00.930Z,17.89
2023-04-17T11:56:29.599Z,17.91
2023-04-17T11:58:57.746Z,17.87
2023-04-17T12:01:28.525Z,17.86
2023-04-17T12:03:56.783Z,17.86
2023-04-17T12:06:24.794Z,17.86
2023-04-17T12:08:53.800Z,17.87
2023-04-17T12:11:26.263Z,17.88
2023-04-17T12:13:53.741Z,17.88
2023-04-17T12:16:20.295Z,17.89
2023-04-17T12:18:46.887Z,17.91
2023-04-17T12:21:14.151Z,17.94
2023-04-17T12:23:41.494Z,17.92
2023-04-17T12:26:08.713Z,17.94
2023-04-17T12:28:36.461Z,17.97
2023-04-17T12:31:04.568Z,17.98
2023-04-17T12:33:32.027Z,17.98
2023-04-17T12:36:01.836Z,17.98
2023-04-17T12:38:28.571Z,17.97
2023-04-17T12:40:55.091Z,17.97
2023-04-17T12:43:21.497Z,17.98
2023-04-17T12:45:48.038Z,18.01
2023-04-17T12:48:15.505Z,17.99
2023-04-17T12:50:43.613Z,17.99
2023-04-17T12:53:11.812Z,18.01
2023-04-17T12:55:42.170Z,18.02
2023-04-17T12:58:10.616Z,18.00
2023-04-17T13:00:38.369Z,18.00
2023-04-17T13:03:05.684Z,17.98
2023-04-17T13:05:32.569Z,17.98
2023-04-17T13:07:59.167Z,17.96
2023-04-17T13:10:25.792Z,17.95
2023-04-17T13:12:52.648Z,17.95
2023-04-17T13:15:19.435Z,17.97
2023-04-17T13:17:46.549Z,17.98
2023-04-17T13:20:13.153Z,17.94
2023-04-17T13:22:39.677Z,17.96
2023-04-17T13:25:06.796Z,17.96
2023-04-17T13:27:33.311Z,17.98
2023-04-17T13:29:59.796Z,18.00
2023-04-17T13:32:26.347Z,18.00
2023-04-17T13:34:52.857Z,18.00
2023-04-17T13:37:19.312Z,18.00
2023-04-17T13:39:45.964Z,18.05
2023-04-17T13:42:16.544Z,18.06
2023-04-17T13:44:43.072Z,18.08
2023-04-17T13:47:09.559Z,18.07
2023-04-17T13:49:36.180Z,18.09
2023-04-17T13:52:03.395Z,18.13
2023-04-17T13:54:29.863Z,18.15
2023-04-17T13:56:57.418Z,18.16
2023-04-17T13:59:25.115Z,18.18
2023-04-17T14:01:51.975Z,18.21
2023-04-17T14:04:18.710Z,18.21
2023-04-17T14:06:47.079Z,18.23
2023-04-17T14:09:13.728Z,18.23
2023-04-17T14:11:41.064Z,18.24
2023-04-17T14:14:07.491Z,18.29
2023-04-17T14:16:34.126Z,18.30
2023-04-17T14:19:09.636Z,18.32
2023-04-17T14:21:39.649Z,18.34
2023-04-17T14:24:06.488Z,18.35
2023-04-17T14:26:33.039Z,18.35
2023-04-17T14:28:59.525Z,18.38
2023-04-17T14:31:26.006Z,18.38
2023-04-17T14:33:52.546Z,18.38
2023-04-17T14:36:18.966Z,18.40
2023-04-17T14:38:49.873Z,18.40
2023-04-17T14:41:17.251Z,18.40
2023-04-17T14:43:44.619Z,18.39
2023-04-17T14:46:11.118Z,18.40
2023-04-17T14:48:51.830Z,18.42
2023-04-17T14:51:18.579Z,18.42
2023-04-17T14:53:45.262Z,18.43
2023-04-17T14:56:11.888Z,18.43
2023-04-17T14:58:38.341Z,18.40
2023-04-17T15:01:04.852Z,18.41
2023-04-17T15:03:32.280Z,18.43
2023-04-17T15:05:59.414Z,18.42
2023-04-17T15:08:25.889Z,18.39
2023-04-17T15:10:52.412Z,18.40
2023-04-17T15:13:18.839Z,18.36
2023-04-17T15:15:45.276Z,18.36
2023-04-17T15:18:11.721Z,18.34
2023-04-17T15:20:38.161Z,18.34
2023-04-17T15:23:04.603Z,18.34
2023-04-17T15:25:31.387Z,18.32
2023-04-17T15:27:57.953Z,18.33
2023-04-17T15:30:24.556Z,18.32
2023-04-17T15:32:51.098Z,18.31
2023-04-17T15:35:17.636Z,18.30
2023-04-17T15:37:44.057Z,18.30
2023-04-17T15:40:11.346Z,18.28
2023-04-17T15:42:37.810Z,18.28
2023-04-17T15:45:04.806Z,18.27
2023-04-17T15:47:31.310Z,18.25
2023-04-17T15:49:57.789Z,18.23
2023-04-17T15:52:24.325Z,18.25
2023-04-17T15:54:51.115Z,18.25
2023-04-17T15:57:17.610Z,18.30
2023-04-17T15:59:44.068Z,18.40
2023-04-17T16:02:12.614Z,18.48
2023-04-17T16:04:39.879Z,18.50
2023-04-17T16:07:06.543Z,18.45
2023-04-17T16:09:33.131Z,18.50
2023-04-17T16:11:59.726Z,18.71
2023-04-17T16:14:26.736Z,18.91
2023-04-17T16:16:53.217Z,19.03
2023-04-17T16:19:21.853Z,19.09
2023-04-17T16:21:48.395Z,19.10
2023-04-17T16:24:14.832Z,19.14
2023-04-17T16:26:42.674Z,19.13
2023-04-17T16:29:09.138Z,19.15
2023-04-17T16:31:35.826Z,19.13
2023-04-17T16:34:02.964Z,19.15
2023-04-17T16:36:30.312Z,19.16
2023-04-17T16:38:57.512Z,19.16
2023-04-17T16:41:23.951Z,19.14
2023-04-17T16:43:50.425Z,19.16
2023-04-17T16:46:23.743Z,19.11
2023-04-17T16:48:55.047Z,19.11
2023-04-17T16:51:23.622Z,19.02
2023-04-17T16:53:50.619Z,19.04
2023-04-17T16:56:17.122Z,18.93
2023-04-17T16:58:43.610Z,18.86
2023-04-17T17:01:10.283Z,18.83
2023-04-17T17:03:37.987Z,18.78
2023-04-17T17:06:06.931Z,18.78
2023-04-17T17:08:33.424Z,18.77
2023-04-17T17:11:00.040Z,18.76
2023-04-17T17:13:26.885Z,18.76
2023-04-17T17:15:53.436Z,18.76
2023-04-17T17:18:19.920Z,18.77
2023-04-17T17:20:49.162Z,18.74
2023-04-17T17:23:15.593Z,18.73
2023-04-17T17:25:42.071Z,18.73
2023-04-17T17:28:08.516Z,18.76
2023-04-17T17:30:34.943Z,18.74
2023-04-17T17:33:01.429Z,18.74
2023-04-17T17:35:27.863Z,18.75
2023-04-17T17:37:54.395Z,18.74
2023-04-17T17:40:20.925Z,18.74
2023-04-17T17:42:47.778Z,18.74
2023-04-17T17:45:14.218Z,18.70
2023-04-17T17:47:40.716Z,18.70
2023-04-17T17:50:08.300Z,18.70
2023-04-17T17:52:34.806Z,18.69
2023-04-17T17:55:01.417Z,18.68
2023-04-17T17:57:35.700Z,18.69
2023-04-17T18:00:09.777Z,18.66
2023-04-17T18:02:36.459Z,18.57
2023-04-17T18:05:03.255Z,18.49
2023-04-17T18:07:29.739Z,18.43
2023-04-17T18:09:56.176Z,18.35
2023-04-17T18:12:22.617Z,18.31
2023-04-17T18:14:49.030Z,18.34
2023-04-17T18:17:15.478Z,18.36
2023-04-17T18:19:42.821Z,18.41
2023-04-17T18:22:09.436Z,18.44
2023-04-17T18:24:36.306Z,18.46
2023-04-17T18:27:03.202Z,18.46
2023-04-17T18:29:30.255Z,18.49
2023-04-17T18:31:56.834Z,18.51
2023-04-17T18:34:23.452Z,18.57
2023-04-17T18:36:50.776Z,18.57
2023-04-17T18:39:20.367Z,18.56
2023-04-17T18:41:47.380Z,18.53
2023-04-17T18:44:14.548Z,18.48
2023-04-17T18:46:41.250Z,18.48
2023-04-17T18:49:07.682Z,18.43
2023-04-17T18:51:34.118Z,18.44
2023-04-17T18:54:00.553Z,18.42
2023-04-17T18:56:26.939Z,18.41
2023-04-17T18:58:53.424Z,18.39
2023-04-17T19:01:19.932Z,18.35
2023-04-17T19:03:46.462Z,18.33
2023-04-17T19:06:12.944Z,18.32
2023-04-17T19:08:42.027Z,18.34
2023-04-17T19:11:08.426Z,18.34
2023-04-17T19:13:34.832Z,18.31
2023-04-17T19:16:01.356Z,18.31
2023-04-17T19:18:29.168Z,18.33
2023-04-17T19:20:55.651Z,18.30
2023-04-17T19:23:22.091Z,18.30
2023-04-17T19:25:54.784Z,18.29
2023-04-17T19:28:21.469Z,18.30
2023-04-17T19:30:47.940Z,18.28
2023-04-17T19:33:14.587Z,18.27
2023-04-17T19:35:41.008Z,18.29
2023-04-17T19:38:07.415Z,18.26
2023-04-17T19:40:34.057Z,18.30
2023-04-17T19:43:02.230Z,18.26
2023-04-17T19:45:28.955Z,18.28
2023-04-17T19:47:57.091Z,18.26
2023-04-17T19:50:27.059Z,18.27
2023-04-17T19:52:54.413Z,18.28
2023-04-17T19:55:20.907Z,18.27
2023-04-17T19:57:48.390Z,18.26
2023-04-17T20:00:15.302Z,18.30
2023-04-17T20:02:41.954Z,18.26
2023-04-17T20:05:09.252Z,18.29
2023-04-17T20:07:36.068Z,18.29
2023-04-17T20:10:02.812Z,18.30
2023-04-17T20:12:29.299Z,18.32
2023-04-17T20:14:55.929Z,18.28
2023-04-17T20:17:22.430Z,18.28
2023-04-17T20:19:48.877Z,18.27
2023-04-17T20:22:15.370Z,18.22
2023-04-17T20:24:41.860Z,18.26
2023-04-17T20:27:08.302Z,18.25
2023-04-17T20:29:34.806Z,18.26
2023-04-17T20:32:03.652Z,18.27
2023-04-17T20:34:34.942Z,18.27
2023-04-17T20:37:01.966Z,18.26
2023-04-17T20:39:29.019Z,18.26
2023-04-17T20:41:56.393Z,18.23
2023-04-17T20:44:22.943Z,18.17
2023-04-17T20:46:49.435Z,18.17
2023-04-17T20:49:16.028Z,18.19
2023-04-17T20:51:42.489Z,18.19
2023-04-17T20:54:08.915Z,18.19
2023-04-17T20:56:35.371Z,18.15
2023-04-17T20:59:02.087Z,18.16
2023-04-17T21:01:28.618Z,18.18
2023-04-17T21:03:55.143Z,18.18
2023-04-17T21:06:22.914Z,18.18
2023-04-17T21:08:49.463Z,18.18
2023-04-17T21:11:15.972Z,18.16
2023-04-17T21:13:42.474Z,18.17
2023-04-17T21:16:11.988Z,18.16
2023-04-17T21:18:38.691Z,18.17
2023-04-17T21:21:05.425Z,18.15
2023-04-17T21:23:31.976Z,18.11
2023-04-17T21:25:58.452Z,18.14
2023-04-17T21:28:24.967Z,18.12
2023-04-17T21:30:51.488Z,18.06
2023-04-17T21:33:18.208Z,18.09
2023-04-17T21:35:44.720Z,18.09
2023-04-17T21:38:11.241Z,18.10
2023-04-17T21:40:48.097Z,18.09
2023-04-17T21:43:17.305Z,18.09
2023-04-17T21:45:43.748Z,18.06
2023-04-17T21:48:10.247Z,18.09
2023-04-17T21:50:36.747Z,18.12
2023-04-17T21:53:03.231Z,18.12
2023-04-17T21:55:29.727Z,18.15
2023-04-17T21:57:56.228Z,18.12
2023-04-17T22:00:22.789Z,18.10
2023-04-17T22:02:49.367Z,18.12
2023-04-17T22:05:15.913Z,18.15
2023-04-17T22:07:51.753Z,18.16
2023-04-17T22:10:21.170Z,18.05
2023-04-17T22:12:47.625Z,18.06
2023-04-17T22:15:14.096Z,18.05
2023-04-17T22:17:41.158Z,18.03
2023-04-17T22:20:08.560Z,17.99
2023-04-17T22:22:35.061Z,17.97
2023-04-17T22:25:01.642Z,17.97
2023-04-17T22:27:29.094Z,18.00
2023-04-17T22:29:55.696Z,17.98
2023-04-17T22:32:22.159Z,17.97
2023-04-17T22:34:51.292Z,17.95
2023-04-17T22:37:18.448Z,17.97
2023-04-17T22:39:45.000Z,17.98
2023-04-17T22:42:11.459Z,17.96
2023-04-17T22:44:37.891Z,17.97
2023-04-17T22:47:04.416Z,17.96
2023-04-17T22:49:30.896Z,17.94
2023-04-17T22:51:57.362Z,17.95
2023-04-17T22:54:23.860Z,17.91
2023-04-17T22:56:50.707Z,17.97
2023-04-17T22:59:17.166Z,17.94
2023-04-17T23:01:43.678Z,17.92
2023-04-17T23:04:10.340Z,17.92
2023-04-17T23:06:36.866Z,17.90
2023-04-17T23:09:04.875Z,17.86
2023-04-17T23:11:32.430Z,17.86
2023-04-17T23:13:58.892Z,17.88
2023-04-17T23:16:25.397Z,17.90
2023-04-17T23:18:52.104Z,17.90
2023-04-17T23:21:18.588Z,17.87
2023-04-17T23:23:48.178Z,17.86
2023-04-17T23:26:15.192Z,17.87
2023-04-17T23:28:41.703Z,17.89
2023-04-17T23:31:08.263Z,17.83
2023-04-17T23:33:34.833Z,17.89
2023-04-17T23:36:01.306Z,17.91
2023-04-17T23:38:27.870Z,17.90
2023-04-17T23:40:54.422Z,17.92
2023-04-17T23:43:20.987Z,17.86
2023-04-17T23:45:47.458Z,17.83
2023-04-17T23:48:13.956Z,17.83
2023-04-17T23:50:41.236Z,17.86
2023-04-17T23:53:07.731Z,17.80
2023-04-17T23:55:34.397Z,17.80
2023-04-17T23:58:00.822Z,17.79
